Time;durP1;ratioP1;P1;durP2;ratioP2;P2;SDS_P1;SDS_P2;PMS_P1;PMS_P2;Temp;Humidity;BMP_temperature;BMP_pressure;BME280_temperature;BME280_humidity;BME280_pressure;Samples;Min_cycle;Max_cycle;Signal;HPM_P1;HPM_P2
2021/08/02 00:01:34;;;;;;;7.90;2.83;;;25.80;64.40;;;;;;5042044;28;20191;-75
2021/08/02 00:04:06;;;;;;;6.95;3.10;;;25.70;63.90;;;;;;5041452;28;20229;-74
2021/08/02 00:07:06;;;;;;;6.68;2.63;;;25.70;63.40;;;;;;5044684;28;20187;-74
2021/08/02 00:09:39;;;;;;;4.80;2.72;;;25.80;63.60;;;;;;5027985;28;20923;-74
2021/08/02 00:12:16;;;;;;;7.30;2.92;;;25.80;63.80;;;;;;5042757;28;20275;-74
2021/08/02 00:14:44;;;;;;;5.55;2.85;;;25.80;63.70;;;;;;5023763;28;20228;-75
2021/08/02 00:17:12;;;;;;;10.45;2.42;;;25.70;62.50;;;;;;5060647;28;20196;-75
2021/08/02 00:19:38;;;;;;;4.85;2.47;;;25.70;62.40;;;;;;5042724;28;20644;-75
2021/08/02 00:22:05;;;;;;;12.57;3.13;;;25.80;62.10;;;;;;5044100;28;20909;-75
2021/08/02 00:24:33;;;;;;;7.05;2.83;;;25.80;62.00;;;;;;5039986;28;20629;-74
2021/08/02 00:27:01;;;;;;;6.38;3.20;;;25.90;62.00;;;;;;5042836;28;20222;-75
2021/08/02 00:29:30;;;;;;;6.22;3.00;;;25.90;61.40;;;;;;5045379;28;20187;-75
2021/08/02 00:31:59;;;;;;;6.80;2.55;;;25.90;61.00;;;;;;5044784;28;20626;-75
2021/08/02 00:34:26;;;;;;;5.38;2.50;;;25.90;60.20;;;;;;5041800;28;20669;-74
2021/08/02 00:37:14;;;;;;;7.85;2.70;;;25.90;60.60;;;;;;5041797;28;20195;-74
2021/08/02 00:40:18;;;;;;;4.88;2.50;;;25.90;60.20;;;;;;5042916;28;20184;-74
2021/08/02 00:42:57;;;;;;;7.78;2.90;;;26.00;60.10;;;;;;5043548;28;20187;-74
2021/08/02 00:45:32;;;;;;;6.03;2.80;;;26.00;61.00;;;;;;5026111;28;20824;-75
2021/08/02 00:48:10;;;;;;;6.80;2.80;;;26.00;60.20;;;;;;5054154;28;20690;-75
2021/08/02 00:50:45;;;;;;;11.95;3.35;;;26.10;61.80;;;;;;5056040;28;20261;-75
2021/08/02 00:53:15;;;;;;;6.28;3.08;;;26.10;59.90;;;;;;5041414;28;20271;-75
2021/08/02 00:55:48;;;;;;;5.97;2.88;;;26.10;59.40;;;;;;5038135;28;20265;-74
2021/08/02 00:58:19;;;;;;;6.13;3.00;;;26.10;60.00;;;;;;5060495;28;20829;-75
2021/08/02 01:00:48;;;;;;;11.63;2.38;;;26.10;59.30;;;;;;5045484;28;20180;-75
2021/08/02 01:03:16;;;;;;;9.05;2.70;;;26.10;59.60;;;;;;5042883;28;20194;-74
2021/08/02 01:05:49;;;;;;;7.50;2.88;;;26.00;59.60;;;;;;5042779;28;20303;-75
2021/08/02 01:08:28;;;;;;;4.72;2.40;;;25.90;59.30;;;;;;5039202;28;20241;-74
2021/08/02 01:11:01;;;;;;;10.38;2.95;;;25.90;60.00;;;;;;5058918;28;20593;-74
2021/08/02 01:13:33;;;;;;;6.57;2.42;;;25.90;59.10;;;;;;5040602;28;20195;-74
2021/08/02 01:16:06;;;;;;;4.18;2.60;;;25.80;58.80;;;;;;5043566;28;20248;-74
2021/08/02 01:18:36;;;;;;;3.85;2.53;;;25.80;59.00;;;;;;5027576;28;20210;-75
2021/08/02 01:21:06;;;;;;;6.78;2.55;;;25.80;59.40;;;;;;5030100;28;20838;-75
2021/08/02 01:23:36;;;;;;;6.45;3.22;;;25.70;58.70;;;;;;5059758;28;20201;-74
2021/08/02 01:26:42;;;;;;;5.80;2.63;;;25.60;58.80;;;;;;5039409;28;20699;-74
2021/08/02 01:30:05;;;;;;;6.13;2.67;;;25.60;58.20;;;;;;5041840;28;20195;-75
2021/08/02 01:32:31;;;;;;;5.03;2.92;;;25.60;58.60;;;;;;5047584;28;20196;-74
2021/08/02 01:34:57;;;;;;;7.05;3.25;;;25.60;58.00;;;;;;5030007;28;20250;-75
2021/08/02 01:37:24;;;;;;;4.93;2.97;;;25.60;58.20;;;;;;5046010;28;20210;-75
2021/08/02 01:39:54;;;;;;;7.95;3.47;;;25.70;58.80;;;;;;5049360;28;20220;-74
2021/08/02 01:42:22;;;;;;;8.20;3.20;;;25.60;58.40;;;;;;5052617;28;20198;-74
2021/08/02 01:44:49;;;;;;;6.63;3.20;;;25.60;58.70;;;;;;5045156;28;20195;-75
2021/08/02 01:47:22;;;;;;;7.22;3.50;;;25.60;58.10;;;;;;5028316;28;20219;-75
2021/08/02 01:50:22;;;;;;;8.55;3.65;;;25.60;57.90;;;;;;5030510;28;20176;-74
2021/08/02 01:53:13;;;;;;;9.43;4.20;;;25.60;57.70;;;;;;5045810;28;20192;-74
2021/08/02 01:55:47;;;;;;;15.57;4.30;;;25.60;57.70;;;;;;5047419;28;20226;-74
2021/08/02 01:58:15;;;;;;;8.07;4.22;;;25.70;57.30;;;;;;5042712;28;20266;-75
2021/08/02 02:00:47;;;;;;;7.70;4.80;;;25.70;57.50;;;;;;5044725;28;20267;-75
2021/08/02 02:03:24;;;;;;;8.77;4.55;;;25.80;58.10;;;;;;5045230;28;20191;-74
2021/08/02 02:06:02;;;;;;;10.43;4.95;;;25.80;59.30;;;;;;5045910;28;20695;-74
2021/08/02 02:08:41;;;;;;;12.07;5.22;;;25.80;58.80;;;;;;5047943;28;20187;-75
2021/08/02 02:11:09;;;;;;;11.10;5.72;;;25.80;58.50;;;;;;5048068;28;20187;-75
2021/08/02 02:13:42;;;;;;;15.90;5.93;;;25.80;58.50;;;;;;5029364;28;20261;-74
2021/08/02 02:16:13;;;;;;;10.32;6.95;;;25.70;58.40;;;;;;5026985;28;20195;-74
2021/08/02 02:18:49;;;;;;;12.85;6.10;;;25.70;58.70;;;;;;5043823;28;20302;-74
2021/08/02 02:21:19;;;;;;;13.32;6.35;;;25.70;58.30;;;;;;5038799;28;20747;-75
2021/08/02 02:23:47;;;;;;;17.50;6.18;;;25.70;58.60;;;;;;5044271;28;20188;-74
2021/08/02 02:26:15;;;;;;;11.73;6.28;;;25.60;58.30;;;;;;5024759;28;20804;-74
2021/08/02 02:28:42;;;;;;;14.50;5.95;;;25.60;58.60;;;;;;5040243;28;20187;-75
2021/08/02 02:31:10;;;;;;;12.05;6.47;;;25.60;58.90;;;;;;5043610;28;20187;-75
2021/08/02 02:33:37;;;;;;;10.13;6.53;;;25.50;59.20;;;;;;5040690;28;20188;-75
2021/08/02 02:36:06;;;;;;;12.93;6.70;;;25.40;59.00;;;;;;5046412;28;20187;-75
2021/08/02 02:38:35;;;;;;;10.65;6.57;;;25.30;59.20;;;;;;5048254;28;20195;-74
2021/08/02 02:41:02;;;;;;;14.13;5.95;;;25.30;59.30;;;;;;5028820;28;20234;-74
2021/08/02 02:43:31;;;;;;;13.93;5.93;;;25.30;59.30;;;;;;5047765;28;20261;-74
2021/08/02 02:46:00;;;;;;;13.48;6.57;;;25.30;59.30;;;;;;5044265;28;20238;-74
2021/08/02 02:48:28;;;;;;;13.85;5.55;;;25.40;59.20;;;;;;5044462;28;20198;-74
2021/08/02 02:50:56;;;;;;;11.65;5.75;;;25.40;59.20;;;;;;5043916;28;20192;-74
2021/08/02 02:53:24;;;;;;;14.57;6.05;;;25.40;59.60;;;;;;5043821;28;20183;-74
2021/08/02 02:55:52;;;;;;;13.40;5.80;;;25.40;59.60;;;;;;5040980;28;20203;-75
2021/08/02 02:58:19;;;;;;;12.23;5.90;;;25.30;59.50;;;;;;5042663;28;20250;-74
2021/08/02 03:00:48;;;;;;;11.57;6.25;;;25.30;59.80;;;;;;5056984;28;20210;-74
2021/08/02 03:03:21;;;;;;;13.63;5.93;;;25.30;59.60;;;;;;5057798;28;20485;-74
2021/08/02 03:05:48;;;;;;;17.77;6.32;;;25.30;59.80;;;;;;5041818;28;20212;-74
2021/08/02 03:08:17;;;;;;;15.88;6.03;;;25.30;60.00;;;;;;5026406;28;20291;-74
2021/08/02 03:10:47;;;;;;;13.63;5.80;;;25.20;59.80;;;;;;5045570;28;20202;-75
2021/08/02 03:13:14;;;;;;;16.67;6.20;;;25.30;60.10;;;;;;5042420;28;20196;-74
2021/08/02 03:15:40;;;;;;;14.10;5.50;;;25.20;60.20;;;;;;5045005;28;20192;-75
2021/08/02 03:18:07;;;;;;;13.23;5.95;;;25.30;60.30;;;;;;5041225;28;20203;-75
2021/08/02 03:20:33;;;;;;;15.10;5.95;;;25.30;60.50;;;;;;5041634;28;20684;-75
2021/08/02 03:23:04;;;;;;;11.15;6.10;;;25.30;60.80;;;;;;5041538;28;20389;-74
2021/08/02 03:25:41;;;;;;;11.68;6.00;;;25.30;61.10;;;;;;5061178;28;20202;-75
2021/08/02 03:28:24;;;;;;;12.30;6.10;;;25.30;60.80;;;;;;5044382;28;20652;-75
2021/08/02 03:30:57;;;;;;;16.17;5.68;;;25.30;60.80;;;;;;5027262;28;20187;-74
2021/08/02 03:33:33;;;;;;;14.55;5.70;;;25.20;60.70;;;;;;5040793;28;20247;-74
2021/08/02 03:36:15;;;;;;;13.00;5.93;;;25.20;60.80;;;;;;5044196;28;20190;-74
2021/08/02 03:38:48;;;;;;;14.38;6.43;;;25.30;61.20;;;;;;5045165;28;20216;-74
2021/08/02 03:41:17;;;;;;;15.63;6.35;;;25.30;61.20;;;;;;5026388;28;20214;-75
2021/08/02 03:43:44;;;;;;;13.25;5.85;;;25.30;60.90;;;;;;5030135;28;20187;-75
2021/08/02 03:46:12;;;;;;;11.60;6.18;;;25.30;62.00;;;;;;5045002;28;20226;-75
2021/08/02 03:48:39;;;;;;;9.50;5.93;;;25.30;61.70;;;;;;5056250;28;20186;-76
2021/08/02 03:51:06;;;;;;;15.13;5.85;;;25.30;61.70;;;;;;5045398;28;20188;-74
2021/08/02 03:53:58;;;;;;;18.85;6.28;;;25.40;61.50;;;;;;5028637;28;20183;-75
2021/08/02 03:56:26;;;;;;;21.27;6.40;;;25.40;61.60;;;;;;5042292;28;20221;-74
2021/08/02 03:58:52;;;;;;;13.15;6.30;;;25.40;61.90;;;;;;5044232;28;20195;-75
2021/08/02 04:01:18;;;;;;;11.90;5.93;;;25.40;61.90;;;;;;5044104;28;20187;-76
2021/08/02 04:03:45;;;;;;;11.38;5.93;;;25.40;62.30;;;;;;5025565;28;20222;-74
2021/08/02 04:06:12;;;;;;;11.75;6.20;;;25.40;62.10;;;;;;5024555;28;20211;-75
2021/08/02 04:08:38;;;;;;;9.30;5.47;;;25.40;62.20;;;;;;5040029;28;20180;-75
2021/08/02 04:11:05;;;;;;;16.85;5.70;;;25.40;62.30;;;;;;5027312;28;20192;-75
2021/08/02 04:13:31;;;;;;;11.05;5.60;;;25.50;62.10;;;;;;5043427;28;20188;-75
2021/08/02 04:15:58;;;;;;;18.48;5.95;;;25.50;61.90;;;;;;5040047;28;20195;-75
2021/08/02 04:18:24;;;;;;;11.90;5.35;;;25.50;62.10;;;;;;5023681;28;20574;-74
2021/08/02 04:20:54;;;;;;;12.30;5.00;;;25.50;62.20;;;;;;5044002;28;20195;-75
2021/08/02 04:23:21;;;;;;;13.55;5.32;;;25.50;62.50;;;;;;5041381;28;20190;-75
2021/08/02 04:25:48;;;;;;;12.25;5.32;;;25.50;62.70;;;;;;5043591;28;20203;-76
2021/08/02 04:28:14;;;;;;;14.40;5.43;;;25.50;62.70;;;;;;5024407;28;20175;-75
2021/08/02 04:30:41;;;;;;;10.45;5.82;;;25.50;62.70;;;;;;5044196;28;20246;-75
2021/08/02 04:33:07;;;;;;;10.55;5.47;;;25.50;63.20;;;;;;5040979;28;20182;-74
2021/08/02 04:35:33;;;;;;;9.60;4.78;;;25.60;63.60;;;;;;5025572;28;20182;-76
2021/08/02 04:38:00;;;;;;;12.43;5.90;;;25.60;63.30;;;;;;5026748;28;20187;-75
2021/08/02 04:40:26;;;;;;;12.95;5.63;;;25.60;63.80;;;;;;5041923;28;20195;-75
2021/08/02 04:42:53;;;;;;;18.08;5.78;;;25.60;64.00;;;;;;5042702;28;20646;-74
2021/08/02 04:45:19;;;;;;;13.88;5.75;;;25.70;64.70;;;;;;5038283;28;20223;-75
2021/08/02 04:47:45;;;;;;;16.70;5.93;;;25.70;64.90;;;;;;5042683;28;20211;-74
2021/08/02 04:50:13;;;;;;;10.18;5.10;;;25.80;65.40;;;;;;5040649;28;20280;-74
2021/08/02 04:52:40;;;;;;;10.20;5.75;;;25.80;65.10;;;;;;5040192;28;20191;-75
2021/08/02 04:55:07;;;;;;;8.57;5.30;;;25.90;65.40;;;;;;5046800;28;20195;-75
2021/08/02 04:57:35;;;;;;;13.63;5.50;;;25.90;64.90;;;;;;5045370;28;20184;-76
2021/08/02 05:00:02;;;;;;;11.05;5.47;;;26.00;65.50;;;;;;5047997;28;20188;-75
2021/08/02 05:02:28;;;;;;;8.88;5.60;;;26.00;66.40;;;;;;5063174;28;20191;-75
2021/08/02 05:04:55;;;;;;;11.57;5.03;;;26.10;66.20;;;;;;5058954;28;20223;-74
2021/08/02 05:07:22;;;;;;;9.68;5.38;;;26.10;66.80;;;;;;5029931;28;20188;-75
2021/08/02 05:09:48;;;;;;;8.75;5.28;;;26.20;67.00;;;;;;5045398;28;20191;-75
2021/08/02 05:12:15;;;;;;;8.80;5.65;;;26.20;66.80;;;;;;5061489;28;20252;-74
2021/08/02 05:14:42;;;;;;;10.43;4.95;;;26.40;66.80;;;;;;5043612;28;20346;-75
2021/08/02 05:17:09;;;;;;;11.18;5.65;;;26.50;67.00;;;;;;5039377;28;20193;-74
2021/08/02 05:19:36;;;;;;;16.50;5.78;;;26.50;67.10;;;;;;5045209;28;20183;-73
2021/08/02 05:22:04;;;;;;;13.63;5.60;;;26.70;65.80;;;;;;5025446;28;20187;-74
2021/08/02 05:24:31;;;;;;;12.95;6.00;;;26.70;66.90;;;;;;5045841;28;20192;-75
2021/08/02 05:26:59;;;;;;;20.63;6.70;;;26.80;63.70;;;;;;5044997;28;20198;-75
2021/08/02 05:29:26;;;;;;;10.95;5.60;;;26.90;64.00;;;;;;5040697;28;20185;-75
2021/08/02 05:31:53;;;;;;;11.32;6.00;;;27.00;63.80;;;;;;5047937;28;20191;-74
2021/08/02 05:34:19;;;;;;;16.27;6.25;;;27.00;65.00;;;;;;5046102;28;20241;-74
2021/08/02 05:36:46;;;;;;;10.60;6.38;;;27.20;63.90;;;;;;5031305;28;20179;-75
2021/08/02 05:39:12;;;;;;;11.15;6.43;;;27.30;61.70;;;;;;5061196;28;20580;-75
2021/08/02 05:41:39;;;;;;;15.80;6.72;;;27.40;65.70;;;;;;5046205;28;20195;-74
2021/08/02 05:44:05;;;;;;;16.38;5.82;;;27.30;65.60;;;;;;5027474;28;20944;-76
2021/08/02 05:46:32;;;;;;;18.95;6.10;;;27.50;61.50;;;;;;5038338;28;20223;-75
2021/08/02 05:48:58;;;;;;;12.77;5.15;;;27.70;60.80;;;;;;5045993;28;20248;-75
2021/08/02 05:51:25;;;;;;;12.98;6.03;;;27.80;59.10;;;;;;5063776;28;20186;-76
2021/08/02 05:53:51;;;;;;;17.92;5.60;;;28.00;58.90;;;;;;5048678;28;20625;-75
2021/08/02 05:56:20;;;;;;;15.90;5.72;;;28.10;60.00;;;;;;5021880;28;20192;-76
2021/08/02 05:58:46;;;;;;;13.02;5.88;;;28.00;60.60;;;;;;5062176;28;20202;-75
2021/08/02 06:01:13;;;;;;;18.52;6.18;;;28.00;64.20;;;;;;5040696;28;20192;-75
2021/08/02 06:03:39;;;;;;;12.25;5.18;;;27.90;60.40;;;;;;5045801;28;20199;-75
2021/08/02 06:06:05;;;;;;;14.32;5.97;;;28.10;61.10;;;;;;5042119;28;20203;-75
2021/08/02 06:08:36;;;;;;;13.25;5.88;;;28.30;60.50;;;;;;5063342;28;20184;-75
2021/08/02 06:11:02;;;;;;;14.63;5.78;;;28.60;59.70;;;;;;5045160;28;20176;-76
2021/08/02 06:13:29;;;;;;;11.75;6.07;;;28.70;59.90;;;;;;5029405;28;21023;-74
2021/08/02 06:15:56;;;;;;;13.80;5.35;;;28.90;59.40;;;;;;5062073;28;20206;-75
2021/08/02 06:18:22;;;;;;;11.73;5.88;;;29.00;60.30;;;;;;5023360;28;20208;-74
2021/08/02 06:20:50;;;;;;;14.85;6.10;;;28.90;60.40;;;;;;5045730;28;20881;-75
2021/08/02 06:23:16;;;;;;;16.80;5.93;;;28.90;60.60;;;;;;5041483;28;20682;-76
2021/08/02 06:25:46;;;;;;;14.32;5.50;;;29.00;59.60;;;;;;5047073;28;20211;-74
2021/08/02 06:28:13;;;;;;;13.68;5.70;;;29.10;59.50;;;;;;5046786;28;20179;-75
2021/08/02 06:30:39;;;;;;;18.67;5.70;;;29.30;58.20;;;;;;5044842;28;20938;-74
2021/08/02 06:33:05;;;;;;;19.92;5.85;;;29.30;59.90;;;;;;5044073;28;20318;-74
2021/08/02 06:35:34;;;;;;;11.82;5.85;;;29.30;60.00;;;;;;5030697;28;20188;-75
2021/08/02 06:38:00;;;;;;;15.63;6.20;;;29.40;60.20;;;;;;5026986;28;20217;-75
2021/08/02 06:40:27;;;;;;;10.63;5.50;;;29.20;60.90;;;;;;5027606;28;20184;-75
2021/08/02 06:42:54;;;;;;;13.80;5.90;;;29.20;61.30;;;;;;5048799;28;20179;-75
2021/08/02 06:45:21;;;;;;;17.42;6.28;;;29.40;61.60;;;;;;5030165;28;20207;-75
2021/08/02 06:47:48;;;;;;;28.13;7.00;;;29.40;61.90;;;;;;5028122;28;20167;-75
2021/08/02 06:50:16;;;;;;;14.88;6.18;;;29.70;60.70;;;;;;5030505;28;20820;-75
2021/08/02 06:52:42;;;;;;;21.63;6.45;;;29.70;60.40;;;;;;5066561;28;20203;-75
2021/08/02 06:55:09;;;;;;;12.63;5.45;;;29.60;61.80;;;;;;5044678;28;20192;-75
2021/08/02 06:57:37;;;;;;;11.35;5.80;;;29.90;60.10;;;;;;5062529;28;20188;-75
2021/08/02 07:00:04;;;;;;;12.88;5.35;;;29.90;59.30;;;;;;5047507;28;20226;-75
2021/08/02 07:02:30;;;;;;;15.13;5.97;;;30.00;61.30;;;;;;5045542;28;20571;-75
2021/08/02 07:04:57;;;;;;;14.95;5.53;;;29.80;63.00;;;;;;5046759;28;20211;-75
2021/08/02 07:07:23;;;;;;;14.98;6.22;;;29.70;61.20;;;;;;5041791;28;20172;-75
2021/08/02 07:09:50;;;;;;;17.02;6.90;;;29.80;60.90;;;;;;5046790;28;20305;-75
2021/08/02 07:12:16;;;;;;;11.77;6.10;;;29.90;63.10;;;;;;5064941;28;20209;-75
2021/08/02 07:14:42;;;;;;;12.75;5.78;;;30.20;60.30;;;;;;5061595;28;20246;-75
2021/08/02 07:17:09;;;;;;;12.70;6.00;;;30.40;60.70;;;;;;5047652;28;20263;-74
2021/08/02 07:19:35;;;;;;;19.60;5.80;;;30.10;64.50;;;;;;5044234;28;20201;-75
2021/08/02 07:22:01;;;;;;;19.23;5.93;;;30.10;62.00;;;;;;5049684;28;20329;-74
2021/08/02 07:24:28;;;;;;;22.00;6.65;;;30.50;61.20;;;;;;5042334;28;20188;-75
2021/08/02 07:26:54;;;;;;;17.00;6.25;;;30.80;60.20;;;;;;5043186;28;20263;-75
2021/08/02 07:29:20;;;;;;;9.38;5.25;;;31.00;60.50;;;;;;5042772;28;20183;-75
2021/08/02 07:31:47;;;;;;;16.30;6.43;;;31.20;61.10;;;;;;5028698;28;20186;-75
2021/08/02 07:34:13;;;;;;;15.40;5.97;;;31.20;59.90;;;;;;5043622;28;20644;-75
2021/08/02 07:36:40;;;;;;;15.95;5.93;;;31.40;59.50;;;;;;5029745;28;20214;-74
2021/08/02 07:39:06;;;;;;;16.98;7.20;;;31.60;60.20;;;;;;5046560;28;20234;-75
2021/08/02 07:41:33;;;;;;;12.50;5.63;;;31.60;60.90;;;;;;5062090;28;20254;-74
2021/08/02 07:44:00;;;;;;;9.60;5.20;;;31.60;61.80;;;;;;5047877;28;20254;-75
2021/08/02 07:46:28;;;;;;;17.65;6.22;;;31.50;62.00;;;;;;5041590;28;20408;-72
2021/08/02 07:48:54;;;;;;;14.50;5.53;;;31.50;63.40;;;;;;5026631;28;20167;-73
2021/08/02 07:51:21;;;;;;;14.00;6.50;;;31.70;63.50;;;;;;5027003;28;20176;-73
2021/08/02 07:53:48;;;;;;;14.13;5.32;;;31.80;63.20;;;;;;5044604;28;20187;-75
2021/08/02 07:56:14;;;;;;;14.75;5.75;;;31.90;63.20;;;;;;5043869;28;20186;-74
2021/08/02 07:58:41;;;;;;;16.60;5.78;;;32.10;62.00;;;;;;5045378;28;20175;-75
2021/08/02 08:01:09;;;;;;;14.25;5.93;;;32.10;63.30;;;;;;5058801;28;20180;-75
2021/08/02 08:03:35;;;;;;;14.90;5.78;;;32.00;63.60;;;;;;5045647;28;20202;-75
2021/08/02 08:06:02;;;;;;;15.32;5.60;;;32.10;64.20;;;;;;5027062;28;20211;-75
2021/08/02 08:08:28;;;;;;;15.10;5.57;;;32.20;64.30;;;;;;5060731;28;20191;-74
2021/08/02 08:10:54;;;;;;;10.50;5.78;;;32.30;64.70;;;;;;5029350;28;20187;-75
2021/08/02 08:13:21;;;;;;;14.13;5.45;;;32.30;65.10;;;;;;5031360;28;20203;-73
2021/08/02 08:15:47;;;;;;;12.13;5.97;;;32.40;65.00;;;;;;5048159;28;20843;-72
2021/08/02 08:18:13;;;;;;;16.23;6.03;;;32.40;65.80;;;;;;5027688;28;20191;-73
2021/08/02 08:20:40;;;;;;;12.48;5.60;;;32.50;66.60;;;;;;5042266;28;20200;-72
2021/08/02 08:23:07;;;;;;;20.55;5.65;;;32.50;67.20;;;;;;5044763;28;20195;-72
2021/08/02 08:25:33;;;;;;;10.88;5.03;;;32.60;67.00;;;;;;5045183;28;20206;-73
2021/08/02 08:28:00;;;;;;;14.68;5.45;;;32.70;66.90;;;;;;5044573;28;20168;-72
2021/08/02 08:30:28;;;;;;;16.80;5.43;;;32.70;66.80;;;;;;5047962;28;20180;-73
2021/08/02 08:32:55;;;;;;;12.00;4.80;;;32.80;68.00;;;;;;5045124;28;20593;-73
2021/08/02 08:35:22;;;;;;;12.27;5.72;;;32.90;67.00;;;;;;5043989;28;20278;-73
2021/08/02 08:37:49;;;;;;;13.30;5.50;;;33.00;68.50;;;;;;5049565;28;20195;-72
2021/08/02 08:40:16;;;;;;;16.77;5.05;;;33.10;69.30;;;;;;5042702;28;20245;-72
2021/08/02 08:42:43;;;;;;;12.65;5.00;;;33.20;68.70;;;;;;5041515;28;20544;-73
2021/08/02 08:45:11;;;;;;;14.30;4.93;;;33.20;68.90;;;;;;5044303;28;20212;-73
2021/08/02 08:47:38;;;;;;;23.63;5.10;;;33.20;69.50;;;;;;5059962;28;20183;-73
2021/08/02 08:50:07;;;;;;;10.32;4.80;;;33.30;69.40;;;;;;5044879;28;20221;-73
2021/08/02 08:52:36;;;;;;;14.95;5.05;;;33.20;70.10;;;;;;5062135;28;20269;-73
2021/08/02 08:55:13;;;;;;;10.63;4.57;;;33.20;70.70;;;;;;5045593;28;20870;-73
2021/08/02 08:57:47;;;;;;;17.08;4.75;;;33.10;71.10;;;;;;5044268;28;20274;-74
2021/08/02 09:00:27;;;;;;;15.45;4.88;;;33.10;71.60;;;;;;5044720;28;20194;-72
2021/08/02 09:03:09;;;;;;;7.43;4.53;;;33.30;73.70;;;;;;5051336;28;20195;-72
2021/08/02 09:05:36;;;;;;;15.77;5.03;;;33.10;73.00;;;;;;5060876;28;20222;-73
2021/08/02 09:08:04;;;;;;;12.32;5.18;;;33.40;73.80;;;;;;5045564;28;20180;-73
2021/08/02 09:10:32;;;;;;;10.40;4.88;;;33.50;75.20;;;;;;5038641;28;20715;-73
2021/08/02 09:13:02;;;;;;;13.05;4.68;;;33.60;75.40;;;;;;5044970;28;20190;-72
2021/08/02 09:15:45;;;;;;;19.55;5.30;;;33.40;75.50;;;;;;5047209;28;20215;-73
2021/08/02 09:18:23;;;;;;;10.85;4.40;;;33.60;75.70;;;;;;5041923;28;20217;-75
2021/08/02 09:21:04;;;;;;;13.38;4.93;;;33.60;75.50;;;;;;5025828;28;20295;-72
2021/08/02 09:23:31;;;;;;;10.65;4.45;;;33.60;74.80;;;;;;5041472;28;20187;-72
2021/08/02 09:26:01;;;;;;;11.63;4.30;;;33.70;75.30;;;;;;5061184;28;20241;-73
2021/08/02 09:28:29;;;;;;;12.38;3.83;;;33.80;73.80;;;;;;5044646;28;20245;-73
2021/08/02 09:31:02;;;;;;;9.93;4.47;;;33.90;72.90;;;;;;5043769;28;20282;-72
2021/08/02 09:33:46;;;;;;;7.60;4.28;;;34.00;73.20;;;;;;5059168;28;20179;-73
2021/08/02 09:36:17;;;;;;;8.98;4.18;;;34.00;71.60;;;;;;5027591;28;20282;-73
2021/08/02 09:38:44;;;;;;;10.43;4.13;;;34.20;68.80;;;;;;5026436;28;20191;-73
2021/08/02 09:41:21;;;;;;;13.18;4.10;;;34.30;68.20;;;;;;5064425;28;20191;-74
2021/08/02 09:43:52;;;;;;;7.45;3.55;;;34.40;66.20;;;;;;5054121;28;20183;-73
2021/08/02 09:46:19;;;;;;;10.43;4.50;;;34.50;64.60;;;;;;5045182;28;20628;-73
2021/08/02 09:48:47;;;;;;;14.65;3.60;;;34.60;63.00;;;;;;5046275;28;20313;-73
2021/08/02 09:51:17;;;;;;;17.30;3.50;;;34.70;62.10;;;;;;5031106;28;20184;-73
2021/08/02 09:53:52;;;;;;;6.25;3.20;;;34.70;60.90;;;;;;5046807;28;20242;-74
2021/08/02 09:56:23;;;;;;;7.47;3.47;;;34.90;57.90;;;;;;5042714;28;20286;-76
2021/08/02 09:58:50;;;;;;;5.93;3.45;;;35.00;58.10;;;;;;5041964;28;20195;-75
2021/08/02 10:01:20;;;;;;;9.40;3.42;;;35.20;58.40;;;;;;5046083;28;20195;-75
2021/08/02 10:03:47;;;;;;;9.93;3.38;;;35.20;56.70;;;;;;5044621;28;20199;-76
2021/08/02 10:06:16;;;;;;;7.00;3.20;;;35.30;55.20;;;;;;5044804;28;20254;-75
2021/08/02 10:08:44;;;;;;;8.88;3.20;;;35.40;55.10;;;;;;5061119;28;20242;-75
2021/08/02 10:11:11;;;;;;;9.63;3.53;;;35.60;56.50;;;;;;5039591;28;20959;-75
2021/08/02 10:13:43;;;;;;;8.68;3.33;;;35.70;55.70;;;;;;5037946;28;20204;-76
2021/08/02 10:16:26;;;;;;;15.98;4.15;;;36.10;54.40;;;;;;5033167;28;20192;-76
2021/08/02 10:19:04;;;;;;;6.78;2.95;;;36.50;53.10;;;;;;5028820;28;20684;-75
2021/08/02 10:21:48;;;;;;;10.85;3.10;;;36.40;51.50;;;;;;5043778;28;20217;-75
2021/08/02 10:24:17;;;;;;;10.02;3.72;;;36.40;52.50;;;;;;5042150;28;20188;-76
2021/08/02 10:27:04;;;;;;;12.07;3.15;;;36.40;53.60;;;;;;5043050;28;20204;-76
2021/08/02 10:29:41;;;;;;;10.55;3.83;;;36.70;50.00;;;;;;5029645;28;20175;-74
2021/08/02 10:32:30;;;;;;;9.82;3.47;;;37.10;49.90;;;;;;5045489;28;21412;-74
2021/08/02 10:34:59;;;;;;;6.80;2.97;;;37.40;47.00;;;;;;5027731;28;20305;-75
2021/08/02 10:37:37;;;;;;;12.32;3.30;;;37.20;50.00;;;;;;5026940;28;20195;-78
2021/08/02 10:40:12;;;;;;;10.73;2.92;;;37.20;49.70;;;;;;5030831;28;20210;-75
2021/08/02 10:42:46;;;;;;;12.85;3.33;;;37.20;49.70;;;;;;5027069;28;20226;-74
2021/08/02 10:45:13;;;;;;;8.40;2.97;;;37.30;44.30;;;;;;5044089;28;20202;-75
2021/08/02 10:47:42;;;;;;;8.57;3.28;;;37.20;52.00;;;;;;5046170;28;20239;-75
2021/08/02 10:50:11;;;;;;;7.15;2.92;;;37.10;51.90;;;;;;5045454;28;20184;-73
2021/08/02 10:52:38;;;;;;;6.57;2.65;;;37.00;51.90;;;;;;5030127;28;20188;-73
2021/08/02 10:55:16;;;;;;;6.03;2.80;;;37.10;49.00;;;;;;5029230;28;20202;-74
2021/08/02 10:57:44;;;;;;;10.30;3.20;;;36.90;48.00;;;;;;5045859;28;20187;-74
2021/08/02 11:00:21;;;;;;;5.55;2.90;;;36.80;47.70;;;;;;5062611;28;20206;-76
2021/08/02 11:02:55;;;;;;;14.43;3.10;;;36.80;46.70;;;;;;5044061;28;20187;-73
2021/08/02 11:05:31;;;;;;;6.30;3.08;;;36.80;46.50;;;;;;5061202;28;20691;-74
2021/08/02 11:08:07;;;;;;;6.60;2.60;;;36.70;48.60;;;;;;5043701;28;20268;-74
2021/08/02 11:10:34;;;;;;;11.55;2.75;;;36.60;46.30;;;;;;5029067;28;20168;-75
2021/08/02 11:13:01;;;;;;;8.73;2.92;;;36.70;45.90;;;;;;5041174;28;20184;-75
2021/08/02 11:15:28;;;;;;;7.05;2.83;;;36.60;45.20;;;;;;5038302;28;20210;-75
2021/08/02 11:17:55;;;;;;;4.55;2.85;;;36.60;46.40;;;;;;5044577;28;20663;-75
2021/08/02 11:20:24;;;;;;;8.25;2.83;;;36.60;45.90;;;;;;5043451;28;20195;-77
2021/08/02 11:22:59;;;;;;;9.32;2.90;;;36.60;45.40;;;;;;5026035;28;20286;-76
2021/08/02 11:25:32;;;;;;;4.63;2.70;;;36.40;46.10;;;;;;5024739;28;20215;-75
2021/08/02 11:28:01;;;;;;;9.95;3.00;;;36.50;44.90;;;;;;5044765;28;20214;-74
2021/08/02 11:30:31;;;;;;;11.52;2.67;;;36.60;46.10;;;;;;5045854;28;20183;-74
2021/08/02 11:32:58;;;;;;;9.48;2.70;;;36.60;45.50;;;;;;5046878;28;20176;-75
2021/08/02 11:35:37;;;;;;;9.43;3.05;;;36.50;44.50;;;;;;5045045;28;20175;-75
2021/08/02 11:38:05;;;;;;;6.60;2.78;;;36.50;45.30;;;;;;5043951;28;20297;-76
2021/08/02 11:40:39;;;;;;;5.65;2.60;;;36.50;44.50;;;;;;5042890;28;20199;-73
2021/08/02 11:43:08;;;;;;;5.28;3.00;;;36.60;45.00;;;;;;5046792;28;20187;-73
2021/08/02 11:45:36;;;;;;;6.15;3.00;;;36.60;45.00;;;;;;5040770;28;20554;-73
2021/08/02 11:48:09;;;;;;;6.32;3.05;;;36.70;45.70;;;;;;5028667;28;20188;-75
2021/08/02 11:50:36;;;;;;;7.60;2.63;;;36.70;45.50;;;;;;5044629;28;20274;-74
2021/08/02 11:53:05;;;;;;;5.82;2.63;;;36.70;45.20;;;;;;5044482;28;20185;-74
2021/08/02 11:55:32;;;;;;;6.47;2.40;;;36.60;45.30;;;;;;5041209;28;20226;-75
2021/08/02 11:58:01;;;;;;;8.15;2.63;;;36.60;45.50;;;;;;5028311;28;20190;-75
2021/08/02 12:00:29;;;;;;;5.70;2.60;;;36.50;47.30;;;;;;5025656;28;20349;-76
2021/08/02 12:03:08;;;;;;;6.07;2.45;;;36.60;48.10;;;;;;5026183;28;20299;-73
2021/08/02 12:05:39;;;;;;;6.88;2.50;;;36.40;46.90;;;;;;5027980;28;20203;-74
2021/08/02 12:08:18;;;;;;;11.57;2.90;;;36.50;47.30;;;;;;5027041;28;20202;-75
2021/08/02 12:11:06;;;;;;;7.47;3.00;;;36.50;46.80;;;;;;5042604;28;20176;-76
2021/08/02 12:13:46;;;;;;;5.75;2.63;;;36.50;46.50;;;;;;5026370;28;20366;-78
2021/08/02 12:16:27;;;;;;;10.93;2.47;;;36.40;46.00;;;;;;5044451;28;20200;-74
2021/08/02 12:19:10;;;;;;;10.32;2.92;;;36.50;46.70;;;;;;5039946;28;20257;-76
2021/08/02 12:21:38;;;;;;;7.35;2.80;;;36.50;46.20;;;;;;5040966;28;20283;-74
2021/08/02 12:24:16;;;;;;;5.93;2.45;;;36.40;47.00;;;;;;5038634;28;20191;-74
2021/08/02 12:26:56;;;;;;;5.63;2.50;;;36.40;46.60;;;;;;5041287;28;20264;-75
2021/08/02 12:29:30;;;;;;;4.07;2.60;;;36.40;47.20;;;;;;5046867;28;20286;-75
2021/08/02 12:32:00;;;;;;;12.60;2.50;;;36.50;45.90;;;;;;5044393;28;20191;-74
2021/08/02 12:34:28;;;;;;;15.23;2.72;;;36.50;46.40;;;;;;5040321;28;20184;-74
2021/08/02 12:37:01;;;;;;;7.60;2.42;;;36.30;47.10;;;;;;5041977;28;20275;-74
2021/08/02 12:39:33;;;;;;;6.97;2.90;;;36.40;46.80;;;;;;5021742;28;20179;-74
2021/08/02 12:41:59;;;;;;;10.05;2.85;;;36.40;47.30;;;;;;5025798;28;20200;-73
2021/08/02 12:44:27;;;;;;;6.22;2.70;;;36.50;47.10;;;;;;5039922;28;20187;-76
2021/08/02 12:46:55;;;;;;;6.22;2.22;;;36.50;48.20;;;;;;5028146;28;20211;-77
2021/08/02 12:49:21;;;;;;;6.50;2.88;;;36.50;49.90;;;;;;5028053;28;20261;-76
2021/08/02 12:51:48;;;;;;;6.93;2.85;;;36.40;49.80;;;;;;5058363;28;20187;-76
2021/08/02 12:54:17;;;;;;;10.57;2.50;;;36.30;48.80;;;;;;5025665;28;20187;-76
2021/08/02 12:56:44;;;;;;;8.00;2.90;;;36.30;50.70;;;;;;5044510;28;20198;-76